Thursday, April 19, 2018, 5:07 PM EDT
Back to Local

KYNG, Youngstown-warren Reg Airprt

Location: Vienna, OH, United States Lat: 41.25
Local Time: 5:07 PM EDT (21:07 GMT) Lon: -80.667
Time Zone: US/Eastern Elev: 1197 ft

Show me the last for .
Show Decoded

2018-04-19 16:51 METAR KYNG 192051Z 32020G27KT 10SM BKN035 04/M04 A3012 RMK AO2 PK WND 30027/2000
                 SLP209 T00391039 51019 =
2018-04-19 15:51 METAR KYNG 191951Z 31018G25KT 10SM BKN030 04/M03 A3011 RMK AO2 PK WND 31026/1909
                 SLP205 T00441033 =
2018-04-19 15:29 METAR KYNG 191929Z 30014G24KT 10SM BKN030 OVC050 04/M03 A3010 RMK AO2 PK WND
                 31026/1909 T00441028 =
2018-04-19 14:51 METAR KYNG 191851Z 32019G23KT 10SM OVC026 03/M02 A3009 RMK AO2 SLP199 T00331022
                 =
2018-04-19 14:39 METAR KYNG 191839Z 31016G21KT 10SM OVC027 03/M02 A3008 =
2018-04-19 13:51 METAR KYNG 191751Z 33020G25KT 10SM OVC030 03/M03 A3006 RMK AO2 PK WND 32027/1719
                 SNE32 SLP190 P0000 60002 T00331028 10033 20000 51031 =
2018-04-19 13:32 METAR KYNG 191732Z 33019G26KT 9SM OVC030 03/M03 A3005 RMK AO2 PK WND 32027/1719
                 SNE32 P0000 T00331028 =
2018-04-19 12:51 METAR KYNG 191651Z 33015KT 9SM -SN OVC023 03/M02 A3003 RMK AO2 PK WND 31026/1620
                 SLP179 BINOVC P0000 T00281022 =
2018-04-19 11:51 METAR KYNG 191551Z 32015G22KT 9SM -SN OVC025 02/M03 A3000 RMK AO2 SLP169 P0000
                 T00171028 =
2018-04-19 10:51 METAR KYNG 191451Z 32013KT 9SM -SN OVC020 01/M03 A2997 RMK AO2 SNB32 SLP158
                 P0000 60002 T00111028 53039 =
2018-04-19 09:51 METAR KYNG 191351Z 32014KT 10SM FEW009 BKN015 OVC030 01/M03 A2992 RMK AO2 SNE27
                 SLP142 P0000 T00061028 =
2018-04-19 09:27 METAR KYNG 191327Z 31010KT 9SM SCT009 OVC018 01/M02 A2991 RMK AO2 SNE27 P0000
                 T00061017 =
2018-04-19 08:51 METAR KYNG 191251Z 31011G18KT 5SM -SN BR BKN007 OVC013 00/M02 A2988 RMK AO2
                 SLP128 P0002 T00001017 =
2018-04-19 08:48 METAR KYNG 191248Z 31015G18KT 3SM -SN BR BKN007 OVC013 00/M01 A2988 RMK AO2
                 P0002 =
2018-04-19 08:09 METAR KYNG 191209Z 33010G19KT 1/2SM SN FG OVC005 00/M01 A2986 RMK AO2 P0001
                 T00001011 =
2018-04-19 07:51 METAR KYNG 191151Z 33011KT 1 1/4SM -SN BR BKN005 OVC012 00/M01 A2985 RMK AO2
                 FZRAE35PLE46 SLP116 P0002 60005 70006 I1000 I6000 T00001011 10011 20000 53036 =
2018-04-19 07:35 METAR KYNG 191135Z 33009KT 1 3/4SM -PLSN BR BKN005 OVC011 00/M01 A2984 RMK AO2
                 FZRAE35 P0001 I1000 T00001011 =
2018-04-19 07:29 METAR KYNG 191129Z 34010KT 1 3/4SM -FZRAPLSN BR BKN005 OVC011 00/M01 A2983 RMK
                 AO2 P0001 I1000 T00001011 =
2018-04-19 06:51 METAR KYNG 191051Z 34010KT 2SM -FZRAPLSN BR BKN005 OVC010 00/M01 A2980 RMK AO2
                 PLB30 SLP101 P0003 I1000 T00001011 =
2018-04-19 06:31 METAR KYNG 191031Z 34008KT 2SM -FZRAPLSN BR OVC005 00/M01 A2979 RMK AO2 PLB30
                 P0002 I1000 T00001011 =
2018-04-19 05:51 METAR KYNG 190951Z 35010KT 2 1/2SM -FZRASN BR OVC007 00/M01 A2977 RMK AO2
                 DZB27E34FZRAB34 SLP087 P0000 I1000 T00001011 =
2018-04-19 05:35 METAR KYNG 190935Z 35011KT 2 1/2SM -FZRASN BR OVC007 00/M01 A2976 RMK AO2
                 DZB27E34FZRAB34 P0000 I1000 T00001011 =
2018-04-19 04:51 METAR KYNG 190851Z 02009KT 7SM -SN OVC007 01/M01 A2974 RMK AO2 SNB24 SLP077
                 P0000 60000 T00061011 58001 =
2018-04-19 04:28 METAR KYNG 190828Z 02006KT 10SM -SN OVC009 01/M01 A2975 RMK AO2 SNB24 P0000
                 T00061011 =
2018-04-19 04:16 METAR KYNG 190816Z 02007KT 10SM BKN012 OVC026 01/M02 A2975 RMK AO2 T00061017 =
2018-04-19 03:51 METAR KYNG 190751Z 36008KT 10SM FEW012 BKN026 OVC036 01/M02 A2977 RMK AO2 SLP087
                 T00111017 =
2018-04-19 03:39 METAR KYNG 190739Z 35008KT 10SM BKN028 OVC036 01/M02 A2977 RMK AO2 T00111017 =
2018-04-19 02:51 METAR KYNG 190651Z 35008KT 10SM FEW014 OVC034 01/M01 A2974 RMK AO2
                 RAE02PLB25E35SNE35 SLP079 P0000 T00111011 =
2018-04-19 02:35 METAR KYNG 190635Z 34005KT 9SM FEW014 OVC034 01/M01 A2974 RMK AO2
                 RAE02PLB25E35SNE35 P0000 T00111011 =
2018-04-19 02:25 METAR KYNG 190625Z 33008KT 9SM -SNPL FEW014 OVC034 01/M01 A2975 =
2018-04-19 01:51 METAR KYNG 190551Z 35006KT 10SM -RASN OVC034 01/M01 A2974 RMK AO2 PLE13SNB13
                 SLP078 P0001 60001 T00111006 10061 20011 50004 =
2018-04-19 01:13 METAR KYNG 190513Z 35003KT 10SM -RASN BKN034 OVC050 01/M01 A2975 RMK AO2
                 PLE13SNB13 P0001 T00111011 =
2018-04-19 00:51 METAR KYNG 190451Z 36007KT 10SM -RAPL OVC033 02/M01 A2975 RMK AO2 RAB17PLB41
                 SLP082 P0000 T00171011 401000000 =
2018-04-19 00:41 METAR KYNG 190441Z 36006KT 10SM -RAPL OVC033 02/M02 A2976 RMK AO2 RAB17PLB41
                 P0000 T00171017 =
2018-04-18 23:51 METAR KYNG 190351Z 01010KT 10SM OVC034 02/M01 A2973 RMK AO2 RAE43 SLP077 P0000
                 T00171006 =
2018-04-18 22:51 METAR KYNG 190251Z 02007KT 10SM -RA FEW036 SCT048 OVC090 02/M01 A2973 RMK AO2
                 RAB49 SLP076 P0000 60000 T00221006 58007 =
2018-04-18 21:51 METAR KYNG 190151Z 02013KT 10SM OVC055 03/M01 A2976 RMK AO2 RAB0053E19 SLP086
                 P0000 T00331006 =
2018-04-18 20:51 METAR KYNG 190051Z 35007KT 10SM OVC040 06/M01 A2977 RMK AO2 SLP090 T00611006 =
2018-04-18 19:51 METAR KYNG 182351Z 02006KT 10SM SCT046 OVC060 06/M01 A2975 RMK AO2 SLP082
                 T00611011 10100 20056 55002 =
2018-04-18 18:51 METAR KYNG 182251Z 03009KT 10SM OVC070 08/M01 A2974 RMK AO2 SLP079 T00781006 =
2018-04-18 17:51 METAR KYNG 182151Z 04007KT 10SM SCT075 SCT250 09/M01 A2974 RMK AO2 SLP079
                 T00941006 =

Support USWX by starting your Amazon purchase here.